createdAt,value
2019-03-15T00:00:10.943Z,2.00
2019-03-15T00:02:39.376Z,1.53
2019-03-15T00:05:07.825Z,1.90
2019-03-15T00:07:36.259Z,2.27
2019-03-15T00:10:07.043Z,2.00
2019-03-15T00:12:35.476Z,1.70
2019-03-15T00:15:05.852Z,1.90
2019-03-15T00:17:34.281Z,1.63
2019-03-15T00:20:02.968Z,2.40
2019-03-15T00:22:31.407Z,2.20
2019-03-15T00:24:59.847Z,2.03
2019-03-15T00:27:28.300Z,2.00
2019-03-15T00:29:56.737Z,1.50
2019-03-15T00:32:25.169Z,1.73
2019-03-15T00:34:53.871Z,1.33
2019-03-15T00:37:22.298Z,1.87
2019-03-15T00:39:50.720Z,1.83
2019-03-15T00:42:19.159Z,1.60
2019-03-15T00:44:47.585Z,1.73
2019-03-15T00:47:16.100Z,1.90
2019-03-15T00:49:44.644Z,1.90
2019-03-15T00:52:13.083Z,1.63
2019-03-15T00:54:41.504Z,1.63
2019-03-15T00:57:09.945Z,2.17
2019-03-15T00:59:38.386Z,2.10
2019-03-15T01:02:06.894Z,1.70
2019-03-15T01:04:35.390Z,2.20
2019-03-15T01:07:03.864Z,1.80
2019-03-15T01:09:32.348Z,2.23
2019-03-15T01:12:00.765Z,2.30
2019-03-15T01:14:29.220Z,1.90
2019-03-15T01:16:57.696Z,1.90
2019-03-15T01:19:26.132Z,2.30
2019-03-15T01:21:54.556Z,2.10
2019-03-15T01:24:23.916Z,2.07
2019-03-15T01:26:52.457Z,1.80
2019-03-15T01:29:20.912Z,1.90
2019-03-15T01:31:49.329Z,2.10
2019-03-15T01:34:17.766Z,2.00
2019-03-15T01:36:46.207Z,1.93
2019-03-15T01:39:14.661Z,2.60
2019-03-15T01:41:43.080Z,2.23
2019-03-15T01:44:11.532Z,2.10
2019-03-15T01:46:39.971Z,2.27
2019-03-15T01:49:08.675Z,2.93
2019-03-15T01:51:37.116Z,3.07
2019-03-15T01:54:05.559Z,2.27
2019-03-15T01:56:34.051Z,2.60
2019-03-15T01:59:02.493Z,2.17
2019-03-15T02:01:31.057Z,2.17
2019-03-15T02:03:59.547Z,2.57
2019-03-15T02:06:28.012Z,3.37
2019-03-15T02:08:56.477Z,2.77
2019-03-15T02:11:24.940Z,2.83
2019-03-15T02:13:54.254Z,2.43
2019-03-15T02:16:22.769Z,2.53
2019-03-15T02:18:51.226Z,2.60
2019-03-15T02:21:19.664Z,3.07
2019-03-15T02:23:48.483Z,2.50
2019-03-15T02:26:17.024Z,2.80
2019-03-15T02:28:45.475Z,2.50
2019-03-15T02:31:13.894Z,2.70
2019-03-15T02:33:42.365Z,3.20
2019-03-15T02:36:10.827Z,3.63
2019-03-15T02:38:39.261Z,2.60
2019-03-15T02:41:07.708Z,3.60
2019-03-15T02:43:36.216Z,3.63
2019-03-15T02:46:04.664Z,3.40
2019-03-15T02:48:33.222Z,3.10
2019-03-15T02:51:01.650Z,2.80
2019-03-15T02:53:30.095Z,3.33
2019-03-15T02:55:58.510Z,3.27
2019-03-15T02:58:27.949Z,2.97
2019-03-15T03:00:56.782Z,3.20
2019-03-15T03:03:25.264Z,3.03
2019-03-15T03:05:54.259Z,3.10
2019-03-15T03:08:22.698Z,4.27
2019-03-15T03:10:51.120Z,3.33
2019-03-15T03:13:19.660Z,3.13
2019-03-15T03:15:48.152Z,2.73
2019-03-15T03:18:16.570Z,2.43
2019-03-15T03:20:45.026Z,3.40
2019-03-15T03:23:13.548Z,3.20
2019-03-15T03:25:41.975Z,2.67
2019-03-15T03:28:10.575Z,2.73
2019-03-15T03:30:39.125Z,3.20
2019-03-15T03:33:07.609Z,2.60
2019-03-15T03:35:36.113Z,2.87
2019-03-15T03:38:04.535Z,2.83
2019-03-15T03:40:33.006Z,3.90
2019-03-15T03:43:01.505Z,3.07
2019-03-15T03:45:30.022Z,2.63
2019-03-15T03:47:58.460Z,2.93
2019-03-15T03:50:26.884Z,2.87
2019-03-15T03:52:55.312Z,2.87
2019-03-15T03:55:24.308Z,3.40
2019-03-15T03:57:52.733Z,3.17
2019-03-15T04:00:21.168Z,2.70
2019-03-15T04:02:53.001Z,2.57
2019-03-15T04:05:19.795Z,2.83
2019-03-15T04:07:48.228Z,1.87
2019-03-15T04:10:16.688Z,2.43
2019-03-15T04:12:45.191Z,1.97
2019-03-15T04:15:13.794Z,2.00
2019-03-15T04:17:42.236Z,2.77
2019-03-15T04:20:12.590Z,3.27
2019-03-15T04:22:41.007Z,2.53
2019-03-15T04:25:10.482Z,1.80
2019-03-15T04:27:38.901Z,2.00
2019-03-15T04:30:10.409Z,2.43
2019-03-15T04:32:38.837Z,2.37
2019-03-15T04:35:07.284Z,2.50
2019-03-15T04:37:35.902Z,3.03
2019-03-15T04:40:25.401Z,2.20
2019-03-15T04:42:54.495Z,2.00
2019-03-15T04:45:22.947Z,6.23
2019-03-15T04:47:51.386Z,2.20
2019-03-15T04:50:19.809Z,2.13
2019-03-15T04:52:48.252Z,2.90
2019-03-15T04:55:16.733Z,2.50
2019-03-15T04:57:45.154Z,2.40
2019-03-15T05:00:14.071Z,2.53
2019-03-15T05:02:42.481Z,3.00
2019-03-15T05:05:11.095Z,2.63
2019-03-15T05:07:39.709Z,2.83
2019-03-15T05:10:09.574Z,2.10
2019-03-15T05:12:38.078Z,2.27
2019-03-15T05:15:09.044Z,2.40
2019-03-15T05:17:37.472Z,2.73
2019-03-15T05:20:08.249Z,2.00
2019-03-15T05:22:36.670Z,2.23
2019-03-15T05:25:06.841Z,2.40
2019-03-15T05:27:35.329Z,2.57
2019-03-15T05:30:05.096Z,2.30
2019-03-15T05:32:33.522Z,2.60
2019-03-15T05:35:01.957Z,2.33
2019-03-15T05:37:30.384Z,2.33
2019-03-15T05:39:58.827Z,2.27
2019-03-15T05:42:27.263Z,2.30
2019-03-15T05:44:55.723Z,2.43
2019-03-15T05:47:24.612Z,2.03
2019-03-15T05:49:53.083Z,2.70
2019-03-15T05:52:21.563Z,2.33
2019-03-15T05:54:50.099Z,2.27
2019-03-15T05:57:18.508Z,2.30
2019-03-15T05:59:46.950Z,2.07
2019-03-15T06:02:15.368Z,2.30
2019-03-15T06:04:43.810Z,1.83
2019-03-15T06:07:12.261Z,3.20
2019-03-15T06:09:40.753Z,2.33
2019-03-15T06:12:09.175Z,2.50
2019-03-15T06:14:37.620Z,2.37
2019-03-15T06:17:06.043Z,2.30
2019-03-15T06:19:34.474Z,2.83
2019-03-15T06:22:02.895Z,3.13
2019-03-15T06:24:31.346Z,2.07
2019-03-15T06:26:59.800Z,2.77
2019-03-15T06:29:28.224Z,2.50
2019-03-15T06:31:56.662Z,2.67
2019-03-15T06:34:25.084Z,2.60
2019-03-15T06:36:53.543Z,3.00
2019-03-15T06:39:21.964Z,2.10
2019-03-15T06:41:56.436Z,2.40
2019-03-15T06:44:24.879Z,2.23
2019-03-15T06:46:53.340Z,2.03
2019-03-15T06:49:41.290Z,2.77
2019-03-15T06:52:09.721Z,2.00
2019-03-15T06:54:38.151Z,3.00
2019-03-15T06:57:06.761Z,1.83
2019-03-15T06:59:39.256Z,2.30
2019-03-15T07:02:07.707Z,2.80
2019-03-15T07:04:36.120Z,2.30
2019-03-15T07:07:04.556Z,2.40
2019-03-15T07:09:33.027Z,2.00
2019-03-15T07:12:09.474Z,2.60
2019-03-15T07:14:31.700Z,2.00
2019-03-15T07:17:00.141Z,2.30
2019-03-15T07:19:30.545Z,2.13
2019-03-15T07:21:58.732Z,2.27
2019-03-15T07:24:27.156Z,3.00
2019-03-15T07:26:55.617Z,3.03
2019-03-15T07:29:24.729Z,2.30
2019-03-15T07:31:53.161Z,2.23
2019-03-15T07:34:21.604Z,2.00
2019-03-15T07:36:50.084Z,2.53
2019-03-15T07:39:18.605Z,2.60
2019-03-15T07:41:47.059Z,2.60
2019-03-15T07:44:15.556Z,3.07
2019-03-15T07:46:44.017Z,2.83
2019-03-15T07:49:12.444Z,2.40
2019-03-15T07:51:40.886Z,2.53
2019-03-15T07:54:09.305Z,2.80
2019-03-15T07:56:37.759Z,2.47
2019-03-15T07:59:06.208Z,3.03
2019-03-15T08:01:34.617Z,2.73
2019-03-15T08:04:15.841Z,3.43
2019-03-15T08:06:35.191Z,3.13
2019-03-15T08:09:05.041Z,2.83
2019-03-15T08:11:33.472Z,3.17
2019-03-15T08:14:01.912Z,2.90
2019-03-15T08:16:30.335Z,3.20
2019-03-15T08:18:58.773Z,3.27
2019-03-15T08:21:27.195Z,2.47
2019-03-15T08:23:55.676Z,3.17
2019-03-15T08:26:25.044Z,2.57
2019-03-15T08:28:53.503Z,3.10
2019-03-15T08:31:23.290Z,2.67
2019-03-15T08:33:52.055Z,3.03
2019-03-15T08:36:20.529Z,3.10
2019-03-15T08:38:49.007Z,2.80
2019-03-15T08:41:17.434Z,3.40
2019-03-15T08:43:46.189Z,2.67
2019-03-15T08:46:14.785Z,3.47
2019-03-15T08:48:43.208Z,3.43
2019-03-15T08:51:11.635Z,3.77
2019-03-15T08:53:40.068Z,3.87
2019-03-15T08:56:08.496Z,2.90
2019-03-15T08:58:36.948Z,3.27
2019-03-15T09:01:05.376Z,3.17
2019-03-15T09:03:34.466Z,3.27
2019-03-15T09:06:03.213Z,2.90
2019-03-15T09:08:31.671Z,3.20
2019-03-15T09:11:00.161Z,3.50
2019-03-15T09:13:28.634Z,3.73
2019-03-15T09:15:57.236Z,2.97
2019-03-15T09:18:25.681Z,3.43
2019-03-15T09:20:55.032Z,3.53
2019-03-15T09:23:23.460Z,3.67
2019-03-15T09:25:51.893Z,3.97
2019-03-15T09:28:20.359Z,3.03
2019-03-15T09:30:48.838Z,3.20
2019-03-15T09:33:17.289Z,3.07
2019-03-15T09:35:45.748Z,3.17
2019-03-15T09:38:14.161Z,3.30
2019-03-15T09:40:42.621Z,2.63
2019-03-15T09:43:11.202Z,3.43
2019-03-15T09:45:39.636Z,3.87
2019-03-15T09:48:08.071Z,3.57
2019-03-15T09:50:50.497Z,3.27
2019-03-15T09:53:06.673Z,2.97
2019-03-15T09:55:35.117Z,3.50
2019-03-15T09:58:03.540Z,2.83
2019-03-15T10:00:31.969Z,3.90
2019-03-15T10:03:00.405Z,3.50
2019-03-15T10:05:28.841Z,2.93
2019-03-15T10:07:57.280Z,3.20
2019-03-15T10:10:25.714Z,3.70
2019-03-15T10:13:05.239Z,3.40
2019-03-15T10:15:26.601Z,3.20
2019-03-15T10:17:55.216Z,3.37
2019-03-15T10:20:23.681Z,3.03
2019-03-15T10:23:05.325Z,3.03
2019-03-15T10:25:26.437Z,3.07
2019-03-15T10:27:55.159Z,3.77
2019-03-15T10:30:23.605Z,3.30
2019-03-15T10:32:52.043Z,2.80
2019-03-15T10:35:20.484Z,3.80
2019-03-15T10:37:48.905Z,3.53
2019-03-15T10:40:18.875Z,2.90
2019-03-15T10:42:47.297Z,3.27
2019-03-15T10:45:15.736Z,3.50
2019-03-15T10:47:44.161Z,3.03
2019-03-15T10:50:16.802Z,3.23
2019-03-15T10:52:45.406Z,2.70
2019-03-15T10:55:14.221Z,2.70
2019-03-15T10:57:42.697Z,3.37
2019-03-15T11:00:18.160Z,3.20
2019-03-15T11:02:46.592Z,3.07
2019-03-15T11:05:15.105Z,2.93
2019-03-15T11:07:43.529Z,2.53
2019-03-15T11:10:12.609Z,2.80
2019-03-15T11:12:41.860Z,3.63
2019-03-15T11:15:11.757Z,2.40
2019-03-15T11:17:40.187Z,2.67
2019-03-15T11:20:10.133Z,3.37
2019-03-15T11:22:38.776Z,2.70
2019-03-15T11:25:09.146Z,2.30
2019-03-15T11:27:37.766Z,2.77
2019-03-15T11:30:08.597Z,2.33
2019-03-15T11:32:37.197Z,2.40
2019-03-15T11:35:13.134Z,2.93
2019-03-15T11:37:41.742Z,2.73
2019-03-15T11:40:19.702Z,2.40
2019-03-15T11:42:48.205Z,2.67
2019-03-15T11:45:16.646Z,3.33
2019-03-15T11:48:01.867Z,2.43
2019-03-15T11:50:20.349Z,2.97
2019-03-15T11:52:48.964Z,2.30
2019-03-15T11:55:17.402Z,2.93
2019-03-15T11:57:45.891Z,2.67
2019-03-15T12:00:20.428Z,2.63
2019-03-15T12:02:48.863Z,2.43
2019-03-15T12:05:17.305Z,2.90
2019-03-15T12:07:45.754Z,3.07
2019-03-15T12:10:17.653Z,2.67
2019-03-15T12:12:46.077Z,3.40
2019-03-15T12:15:15.654Z,2.43
2019-03-15T12:17:44.108Z,3.17
2019-03-15T12:20:13.173Z,2.90
2019-03-15T12:22:41.600Z,3.00
2019-03-15T12:25:13.373Z,2.33
2019-03-15T12:27:41.856Z,3.10
2019-03-15T12:30:19.177Z,3.07
2019-03-15T12:32:47.618Z,2.83
2019-03-15T12:35:16.659Z,3.23
2019-03-15T12:37:45.088Z,3.10
2019-03-15T12:40:17.671Z,3.23
2019-03-15T12:42:46.199Z,3.53
2019-03-15T12:45:15.275Z,3.07
2019-03-15T12:47:43.730Z,3.63
2019-03-15T12:50:15.515Z,3.57
2019-03-15T12:52:48.716Z,3.40
2019-03-15T12:55:17.496Z,3.37
2019-03-15T12:57:48.933Z,2.83
2019-03-15T13:00:18.272Z,3.00
2019-03-15T13:02:46.785Z,3.40
2019-03-15T13:05:16.502Z,3.57
2019-03-15T13:07:44.998Z,3.07
2019-03-15T13:10:16.489Z,3.13
2019-03-15T13:12:44.920Z,3.33
2019-03-15T13:15:17.067Z,3.53
2019-03-15T13:17:45.509Z,3.87
2019-03-15T13:20:15.279Z,3.57
2019-03-15T13:22:43.724Z,4.27
2019-03-15T13:25:12.777Z,3.80
2019-03-15T13:27:41.244Z,3.67
2019-03-15T13:30:11.684Z,3.93
2019-03-15T13:32:40.230Z,3.60
2019-03-15T13:35:09.185Z,3.17
2019-03-15T13:37:37.764Z,3.47
2019-03-15T13:40:14.342Z,3.43
2019-03-15T13:42:42.795Z,3.37
2019-03-15T13:45:12.756Z,3.00
2019-03-15T13:47:41.194Z,2.37
2019-03-15T13:50:13.703Z,2.90
2019-03-15T13:52:42.165Z,3.00
2019-03-15T13:55:10.847Z,3.27
2019-03-15T13:57:39.276Z,2.90
2019-03-15T14:00:13.349Z,2.70
2019-03-15T14:02:41.768Z,2.33
2019-03-15T14:05:10.594Z,2.20
2019-03-15T14:07:39.191Z,2.40
2019-03-15T14:10:12.693Z,2.37
2019-03-15T14:12:41.284Z,1.87
2019-03-15T14:15:21.756Z,2.03
2019-03-15T14:17:50.203Z,2.13
2019-03-15T14:20:18.622Z,1.80
2019-03-15T14:22:47.053Z,1.83
2019-03-15T14:25:18.581Z,1.80
2019-03-15T14:27:47.031Z,1.53
2019-03-15T14:30:15.543Z,2.30
2019-03-15T14:32:44.276Z,1.97
2019-03-15T14:35:13.059Z,1.70
2019-03-15T14:37:41.553Z,1.90
2019-03-15T14:40:11.296Z,1.87
2019-03-15T14:42:40.003Z,2.00
2019-03-15T14:45:10.496Z,1.90
2019-03-15T14:47:39.051Z,2.00
2019-03-15T14:50:09.337Z,1.70
2019-03-15T14:52:37.945Z,1.77
2019-03-15T14:55:08.528Z,1.80
2019-03-15T14:57:50.609Z,2.13
2019-03-15T15:00:14.961Z,2.00
2019-03-15T15:02:43.393Z,2.40
2019-03-15T15:05:12.457Z,2.07
2019-03-15T15:07:40.908Z,3.40
2019-03-15T15:10:11.266Z,2.60
2019-03-15T15:12:39.773Z,4.47
2019-03-15T15:15:11.300Z,3.07
2019-03-15T15:17:39.983Z,3.60
2019-03-15T15:20:09.919Z,3.10
2019-03-15T15:22:38.358Z,3.40
2019-03-15T15:25:11.316Z,4.20
2019-03-15T15:27:39.840Z,3.67
2019-03-15T15:30:11.430Z,4.50
2019-03-15T15:32:39.876Z,3.60
2019-03-15T15:35:10.308Z,3.53
2019-03-15T15:37:38.863Z,5.67
2019-03-15T15:40:12.498Z,4.30
2019-03-15T15:42:41.072Z,3.87
2019-03-15T15:45:11.024Z,4.20
2019-03-15T15:47:39.540Z,5.23
2019-03-15T15:50:10.963Z,3.67
2019-03-15T15:52:39.466Z,3.90
2019-03-15T15:55:15.017Z,3.77
2019-03-15T15:57:43.542Z,3.50
2019-03-15T16:00:18.628Z,3.60
2019-03-15T16:02:47.060Z,3.87
2019-03-15T16:05:15.618Z,3.27
2019-03-15T16:07:44.121Z,3.50
2019-03-15T16:10:17.613Z,3.57
2019-03-15T16:12:45.810Z,2.90
2019-03-15T16:15:18.160Z,3.07
2019-03-15T16:17:46.669Z,2.40
2019-03-15T16:20:15.110Z,2.80
2019-03-15T16:22:43.610Z,2.83
2019-03-15T16:25:12.485Z,2.50
2019-03-15T16:27:40.988Z,4.63
2019-03-15T16:30:16.390Z,3.23
2019-03-15T16:32:44.852Z,3.10
2019-03-15T16:35:14.822Z,2.47
2019-03-15T16:37:43.242Z,2.10
2019-03-15T16:40:13.004Z,2.50
2019-03-15T16:42:41.580Z,2.67
2019-03-15T16:45:16.048Z,2.77
2019-03-15T16:47:44.497Z,3.10
2019-03-15T16:50:13.673Z,2.33
2019-03-15T16:52:42.104Z,2.60
2019-03-15T16:55:12.002Z,2.70
2019-03-15T16:57:40.452Z,2.73
2019-03-15T17:00:11.952Z,2.90
2019-03-15T17:02:40.386Z,2.37
2019-03-15T17:05:10.549Z,2.40
2019-03-15T17:07:39.048Z,2.60
2019-03-15T17:10:10.517Z,2.20
2019-03-15T17:12:39.023Z,2.20
2019-03-15T17:15:10.563Z,2.20
2019-03-15T17:17:39.086Z,2.53
2019-03-15T17:20:09.653Z,2.30
2019-03-15T17:22:38.093Z,2.30
2019-03-15T17:25:09.067Z,2.20
2019-03-15T17:27:37.504Z,2.33
2019-03-15T17:30:13.813Z,2.50
2019-03-15T17:32:42.254Z,3.00
2019-03-15T17:35:12.168Z,2.27
2019-03-15T17:37:40.800Z,2.30
2019-03-15T17:40:14.360Z,2.40
2019-03-15T17:42:42.863Z,1.97
2019-03-15T17:45:11.426Z,2.37
2019-03-15T17:47:39.857Z,2.27
2019-03-15T17:50:18.620Z,2.07
2019-03-15T17:52:47.076Z,2.10
2019-03-15T17:55:16.724Z,1.80
2019-03-15T17:57:45.809Z,2.37
2019-03-15T18:00:20.792Z,1.67
2019-03-15T18:02:49.224Z,1.73
2019-03-15T18:05:17.653Z,1.60
2019-03-15T18:07:46.084Z,1.83
2019-03-15T18:10:14.512Z,1.90
2019-03-15T18:12:43.005Z,1.90
2019-03-15T18:15:11.505Z,2.10
2019-03-15T18:17:39.936Z,2.97
2019-03-15T18:20:09.311Z,1.60
2019-03-15T18:22:37.724Z,1.60
2019-03-15T18:25:08.019Z,2.00
2019-03-15T18:27:36.452Z,1.90
2019-03-15T18:30:10.527Z,1.57
2019-03-15T18:32:38.957Z,1.83
2019-03-15T18:35:08.831Z,1.80
2019-03-15T18:37:37.264Z,1.40
2019-03-15T18:40:14.742Z,1.47
2019-03-15T18:42:43.274Z,2.00
2019-03-15T18:45:13.713Z,2.17
2019-03-15T18:47:42.221Z,2.00
2019-03-15T18:50:19.404Z,2.10
2019-03-15T18:52:47.834Z,1.50
2019-03-15T18:55:16.309Z,2.40
2019-03-15T18:57:44.784Z,4.17
2019-03-15T19:00:20.016Z,1.80
2019-03-15T19:02:48.517Z,1.50
2019-03-15T19:05:17.103Z,1.90
2019-03-15T19:07:45.537Z,1.90
2019-03-15T19:10:14.857Z,1.50
2019-03-15T19:12:43.292Z,1.83
2019-03-15T19:15:13.868Z,1.53
2019-03-15T19:17:42.310Z,2.10
2019-03-15T19:20:12.692Z,1.90
2019-03-15T19:22:41.196Z,2.47
2019-03-15T19:25:10.964Z,2.30
2019-03-15T19:27:39.407Z,2.00
2019-03-15T19:30:11.048Z,1.93
2019-03-15T19:32:39.541Z,2.20
2019-03-15T19:35:09.150Z,2.00
2019-03-15T19:37:37.581Z,2.43
2019-03-15T19:40:16.004Z,2.13
2019-03-15T19:42:45.450Z,2.20
2019-03-15T19:45:17.322Z,2.00
2019-03-15T19:47:45.751Z,2.33
2019-03-15T19:50:20.102Z,2.23
2019-03-15T19:52:48.628Z,2.00
2019-03-15T19:55:17.480Z,1.60
2019-03-15T19:57:46.043Z,1.80
2019-03-15T20:00:21.536Z,1.57
2019-03-15T20:02:49.964Z,2.10
2019-03-15T20:05:18.491Z,1.80
2019-03-15T20:07:47.212Z,1.67
2019-03-15T20:10:17.207Z,1.77
2019-03-15T20:12:45.951Z,1.80
2019-03-15T20:15:18.020Z,1.93
2019-03-15T20:17:46.433Z,2.20
2019-03-15T20:20:17.955Z,1.97
2019-03-15T20:22:46.368Z,1.93
2019-03-15T20:25:15.742Z,2.33
2019-03-15T20:27:44.184Z,1.60
2019-03-15T20:30:25.584Z,2.00
2019-03-15T20:32:49.676Z,2.03
2019-03-15T20:35:18.175Z,2.77
2019-03-15T20:37:46.576Z,1.80
2019-03-15T20:40:15.006Z,1.80
2019-03-15T20:42:43.430Z,2.03
2019-03-15T20:45:28.348Z,1.80
2019-03-15T20:47:56.765Z,2.00
2019-03-15T20:50:25.263Z,2.10
2019-03-15T20:53:07.209Z,1.83
2019-03-15T20:55:23.889Z,1.83
2019-03-15T20:57:52.368Z,1.87
2019-03-15T21:00:34.813Z,1.80
2019-03-15T21:02:52.359Z,1.83
2019-03-15T21:05:20.980Z,1.60
2019-03-15T21:07:49.399Z,2.00
2019-03-15T21:10:19.365Z,1.90
2019-03-15T21:12:47.805Z,2.10
2019-03-15T21:15:16.785Z,1.43
2019-03-15T21:17:45.243Z,1.53
2019-03-15T21:20:15.019Z,1.90
2019-03-15T21:22:43.460Z,1.50
2019-03-15T21:25:11.900Z,1.63
2019-03-15T21:27:52.856Z,1.80
2019-03-15T21:30:15.648Z,1.80
2019-03-15T21:32:44.068Z,1.90
2019-03-15T21:35:12.505Z,2.00
2019-03-15T21:37:40.953Z,1.70
2019-03-15T21:40:14.544Z,1.60
2019-03-15T21:42:43.049Z,1.37
2019-03-15T21:45:12.125Z,1.40
2019-03-15T21:47:40.564Z,1.40
2019-03-15T21:50:16.798Z,1.57
2019-03-15T21:52:45.234Z,1.80
2019-03-15T21:55:13.751Z,1.60
2019-03-15T21:57:42.168Z,1.47
2019-03-15T22:00:13.072Z,1.40
2019-03-15T22:02:41.499Z,1.70
2019-03-15T22:05:10.072Z,1.90
2019-03-15T22:07:38.486Z,1.60
2019-03-15T22:10:09.476Z,2.10
2019-03-15T22:12:37.897Z,1.83
2019-03-15T22:15:08.199Z,1.57
2019-03-15T22:17:36.688Z,1.80
2019-03-15T22:20:08.180Z,1.90
2019-03-15T22:22:36.607Z,1.87
2019-03-15T22:25:06.688Z,1.60
2019-03-15T22:27:35.187Z,1.47
2019-03-15T22:30:04.847Z,1.90
2019-03-15T22:32:33.277Z,2.00
2019-03-15T22:35:01.719Z,1.90
2019-03-15T22:37:30.168Z,1.50
2019-03-15T22:39:58.607Z,1.80
2019-03-15T22:42:27.049Z,1.30
2019-03-15T22:44:55.511Z,1.87
2019-03-15T22:47:24.021Z,1.27
2019-03-15T22:49:52.444Z,1.50
2019-03-15T22:52:20.906Z,1.40
2019-03-15T22:54:49.320Z,1.37
2019-03-15T22:57:17.805Z,1.37
2019-03-15T22:59:46.245Z,1.80
2019-03-15T23:02:14.719Z,1.77
2019-03-15T23:04:43.214Z,1.67
2019-03-15T23:07:11.677Z,1.53
2019-03-15T23:09:40.101Z,1.73
2019-03-15T23:12:08.546Z,1.90
2019-03-15T23:14:36.969Z,1.53
2019-03-15T23:17:05.409Z,1.67
2019-03-15T23:19:33.852Z,1.50
2019-03-15T23:22:02.291Z,1.73
2019-03-15T23:24:30.723Z,1.60
2019-03-15T23:26:59.158Z,1.63
2019-03-15T23:29:27.604Z,1.57
2019-03-15T23:31:56.956Z,1.63
2019-03-15T23:34:25.408Z,1.87
2019-03-15T23:36:53.853Z,1.93
2019-03-15T23:39:22.289Z,1.83
2019-03-15T23:41:50.747Z,2.10
2019-03-15T23:44:19.168Z,1.73
2019-03-15T23:46:47.607Z,2.47
2019-03-15T23:49:16.076Z,1.93
2019-03-15T23:51:44.500Z,1.70
2019-03-15T23:54:12.936Z,1.60
2019-03-15T23:57:00.712Z,1.37
2019-03-15T23:59:29.136Z,2.20
